Time;durP1;ratioP1;P1;durP2;ratioP2;P2;SDS_P1;SDS_P2;PMS_P1;PMS_P2;Temp;Humidity;BMP_temperature;BMP_pressure;BME280_temperature;BME280_humidity;BME280_pressure;Samples;Min_cycle;Max_cycle;Signal;HPM_P1;HPM_P2
2023/01/09 00:00:50;;;;;;;3.42;2.00;;;;;;;;;;5057855;28;20462;-60
2023/01/09 00:03:16;;;;;;;5.32;2.10;;;;;;;;;;5060250;28;20040;-61
2023/01/09 00:05:41;;;;;;;4.38;2.25;;;;;;;;;;5058290;28;20028;-61
2023/01/09 00:08:06;;;;;;;3.75;2.08;;;;;;;;;;5058907;28;20032;-61
2023/01/09 00:10:32;;;;;;;4.60;2.20;;;;;;;;;;5056871;28;20029;-60
2023/01/09 00:12:57;;;;;;;5.88;2.20;;;;;;;;;;5056820;28;20035;-61
2023/01/09 00:15:23;;;;;;;3.72;2.20;;;;;;;;;;5057569;28;20036;-61
2023/01/09 00:17:48;;;;;;;3.83;2.20;;;;;;;;;;5058719;28;20105;-61
2023/01/09 00:20:14;;;;;;;2.70;2.10;;;;;;;;;;5058321;28;20040;-60
2023/01/09 00:22:39;;;;;;;4.70;2.20;;;;;;;;;;5056216;28;20040;-60
2023/01/09 00:25:05;;;;;;;3.97;2.10;;;;;;;;;;5062418;28;20032;-61
2023/01/09 00:27:32;;;;;;;3.92;2.17;;;;;;;;;;5063515;28;20032;-61
2023/01/09 00:29:57;;;;;;;5.30;2.13;;;;;;;;;;5062605;28;20039;-61
2023/01/09 00:32:23;;;;;;;2.88;1.90;;;;;;;;;;5062142;28;20044;-60
2023/01/09 00:34:48;;;;;;;1.90;1.35;;;;;;;;;;5063314;28;20426;-60
2023/01/09 00:37:14;;;;;;;3.20;1.83;;;;;;;;;;5063784;28;20035;-60
2023/01/09 00:39:40;;;;;;;2.50;1.80;;;;;;;;;;5064758;28;20036;-59
2023/01/09 00:42:13;;;;;;;3.78;1.70;;;;;;;;;;5062269;28;20078;-60
2023/01/09 00:44:43;;;;;;;2.50;1.70;;;;;;;;;;5068128;28;20112;-60
2023/01/09 00:47:15;;;;;;;3.97;1.87;;;;;;;;;;5072741;28;20077;-60
2023/01/09 00:49:42;;;;;;;4.75;1.80;;;;;;;;;;5060750;28;20024;-59
2023/01/09 00:52:10;;;;;;;1.30;1.20;;;;;;;;;;5077571;28;20029;-59
2023/01/09 00:54:36;;;;;;;3.17;1.70;;;;;;;;;;5069200;28;20029;-60
2023/01/09 00:57:01;;;;;;;3.03;1.80;;;;;;;;;;5057444;28;20074;-59
2023/01/09 00:59:27;;;;;;;3.08;1.55;;;;;;;;;;5059991;28;20044;-60
2023/01/09 01:01:53;;;;;;;2.88;1.80;;;;;;;;;;5059492;28;20029;-60
2023/01/09 01:09:46;;;;;;;2.58;1.58;;;;;;;;;;5059652;28;20044;-60
2023/01/09 01:12:12;;;;;;;3.40;1.48;;;;;;;;;;5060885;28;20028;-59
2023/01/09 01:14:38;;;;;;;4.97;1.75;;;;;;;;;;5056592;28;20047;-60
2023/01/09 01:17:04;;;;;;;1.67;1.25;;;;;;;;;;5061879;28;20651;-58
2023/01/09 01:19:30;;;;;;;3.15;1.50;;;;;;;;;;5057158;28;20520;-60
2023/01/09 01:21:55;;;;;;;3.97;1.40;;;;;;;;;;5062819;28;20032;-59
2023/01/09 01:24:21;;;;;;;3.85;1.10;;;;;;;;;;5058930;28;20028;-60
2023/01/09 01:26:46;;;;;;;2.38;1.23;;;;;;;;;;5066925;28;20043;-59
2023/01/09 01:29:12;;;;;;;1.33;0.80;;;;;;;;;;5061055;28;20052;-60
2023/01/09 01:31:38;;;;;;;1.40;1.10;;;;;;;;;;5066712;28;20472;-60
2023/01/09 01:34:03;;;;;;;1.10;0.90;;;;;;;;;;5067129;28;20044;-60
2023/01/09 01:36:28;;;;;;;1.92;1.10;;;;;;;;;;5060944;28;20036;-60
2023/01/09 01:38:54;;;;;;;1.50;0.95;;;;;;;;;;5060402;28;20051;-59
2023/01/09 01:41:29;;;;;;;2.15;0.90;;;;;;;;;;5064328;28;20036;-60
2023/01/09 01:43:56;;;;;;;3.13;1.45;;;;;;;;;;5062146;28;20032;-58
2023/01/09 01:46:21;;;;;;;1.50;1.27;;;;;;;;;;5058400;28;20040;-58
2023/01/09 01:48:52;;;;;;;1.52;1.08;;;;;;;;;;5060652;28;20028;-58
2023/01/09 01:51:19;;;;;;;2.70;1.40;;;;;;;;;;5055725;28;20028;-61
2023/01/09 01:53:52;;;;;;;1.50;1.10;;;;;;;;;;5061409;28;20041;-62
2023/01/09 01:56:42;;;;;;;1.67;1.25;;;;;;;;;;5056687;28;20029;-58
2023/01/09 01:59:20;;;;;;;1.45;1.13;;;;;;;;;;5059381;28;20055;-59
2023/01/09 02:01:49;;;;;;;2.00;1.60;;;;;;;;;;5057917;28;20067;-58
2023/01/09 02:04:15;;;;;;;2.95;1.55;;;;;;;;;;5056101;28;20031;-61
2023/01/09 02:06:41;;;;;;;2.05;1.50;;;;;;;;;;5060566;28;20028;-62
2023/01/09 02:09:07;;;;;;;2.10;1.52;;;;;;;;;;5059829;28;20047;-59
2023/01/09 02:11:33;;;;;;;4.03;1.98;;;;;;;;;;5060335;28;20039;-61
2023/01/09 02:14:00;;;;;;;1.58;1.20;;;;;;;;;;5059679;28;20024;-60
2023/01/09 02:16:46;;;;;;;3.45;1.75;;;;;;;;;;5061641;28;20056;-60
2023/01/09 02:19:30;;;;;;;2.13;1.42;;;;;;;;;;5058347;28;20035;-61
2023/01/09 02:22:47;;;;;;;2.53;1.73;;;;;;;;;;5058852;28;21028;-61
2023/01/09 02:25:21;;;;;;;3.33;1.95;;;;;;;;;;5018991;28;20121;-60
2023/01/09 02:28:07;;;;;;;3.00;1.80;;;;;;;;;;5059051;28;20501;-61
2023/01/09 02:30:42;;;;;;;4.03;1.42;;;;;;;;;;5060723;28;20111;-61
2023/01/09 02:33:13;;;;;;;5.72;1.90;;;;;;;;;;5060296;28;20054;-61
2023/01/09 02:36:00;;;;;;;1.63;1.40;;;;;;;;;;5058850;28;20040;-61
2023/01/09 02:38:40;;;;;;;1.80;1.08;;;;;;;;;;5070540;28;20021;-61
2023/01/09 02:41:44;;;;;;;1.30;1.17;;;;;;;;;;5063467;28;20143;-61
2023/01/09 02:44:21;;;;;;;3.17;1.50;;;;;;;;;;5058372;28;20028;-61
2023/01/09 02:46:47;;;;;;;4.68;1.20;;;;;;;;;;5057032;28;20104;-61
2023/01/09 02:49:14;;;;;;;2.72;1.25;;;;;;;;;;5055416;28;20116;-61
2023/01/09 02:51:51;;;;;;;2.67;1.55;;;;;;;;;;5059306;28;20025;-61
2023/01/09 02:54:21;;;;;;;1.50;1.20;;;;;;;;;;5059497;28;20031;-61
2023/01/09 02:57:05;;;;;;;1.80;1.17;;;;;;;;;;5069803;28;20083;-61
2023/01/09 02:59:39;;;;;;;2.80;1.20;;;;;;;;;;5072944;28;20135;-61
2023/01/09 03:02:19;;;;;;;3.88;1.40;;;;;;;;;;5078129;28;20072;-61
2023/01/09 03:05:13;;;;;;;2.35;1.40;;;;;;;;;;5079803;28;20036;-61
2023/01/09 03:07:48;;;;;;;2.75;1.20;;;;;;;;;;5064690;28;20136;-61
2023/01/09 03:10:23;;;;;;;2.50;1.38;;;;;;;;;;5063066;28;20032;-60
2023/01/09 03:12:52;;;;;;;2.53;1.30;;;;;;;;;;5062469;28;20040;-60
2023/01/09 03:15:22;;;;;;;5.25;1.70;;;;;;;;;;5063670;28;20572;-60
2023/01/09 03:17:50;;;;;;;5.07;1.80;;;;;;;;;;5055626;28;20032;-60
2023/01/09 03:20:22;;;;;;;4.78;1.95;;;;;;;;;;5067952;28;20477;-60
2023/01/09 03:22:59;;;;;;;3.53;1.67;;;;;;;;;;5064585;28;20032;-61
2023/01/09 03:25:27;;;;;;;2.25;1.70;;;;;;;;;;5067510;28;20040;-61
2023/01/09 03:28:01;;;;;;;5.75;2.05;;;;;;;;;;5062385;28;20074;-61
2023/01/09 03:30:28;;;;;;;2.75;1.48;;;;;;;;;;5061603;28;20044;-61
2023/01/09 03:32:55;;;;;;;5.25;1.95;;;;;;;;;;5063184;28;20064;-61
2023/01/09 03:35:20;;;;;;;4.03;2.08;;;;;;;;;;5066604;28;20032;-62
2023/01/09 03:37:46;;;;;;;6.20;2.40;;;;;;;;;;5063730;28;20028;-61
2023/01/09 03:40:11;;;;;;;3.80;1.95;;;;;;;;;;5068176;28;20047;-61
2023/01/09 03:42:37;;;;;;;4.25;2.30;;;;;;;;;;5062001;28;20417;-62
2023/01/09 03:45:03;;;;;;;5.57;2.50;;;;;;;;;;5068362;28;20082;-61
2023/01/09 03:47:28;;;;;;;7.30;2.88;;;;;;;;;;5064232;28;20042;-62
2023/01/09 03:49:54;;;;;;;4.63;2.70;;;;;;;;;;5073063;28;20376;-61
2023/01/09 03:52:19;;;;;;;4.72;2.45;;;;;;;;;;5074086;28;20025;-61
2023/01/09 03:54:44;;;;;;;7.53;3.20;;;;;;;;;;5069014;28;20483;-61
2023/01/09 03:57:10;;;;;;;5.07;2.70;;;;;;;;;;5061511;28;20032;-60
2023/01/09 03:59:35;;;;;;;6.35;3.55;;;;;;;;;;5062990;28;20086;-61
2023/01/09 04:02:01;;;;;;;6.40;2.78;;;;;;;;;;5063534;28;20040;-60
2023/01/09 04:04:26;;;;;;;8.00;3.00;;;;;;;;;;5061494;28;20025;-60
2023/01/09 04:06:51;;;;;;;8.82;2.85;;;;;;;;;;5065932;28;20054;-59
2023/01/09 04:09:17;;;;;;;5.15;2.58;;;;;;;;;;5071153;28;20024;-59
2023/01/09 04:11:42;;;;;;;6.78;3.33;;;;;;;;;;5078005;28;20067;-58
2023/01/09 04:14:07;;;;;;;5.60;2.88;;;;;;;;;;5067861;28;20025;-60
2023/01/09 04:16:33;;;;;;;5.55;2.38;;;;;;;;;;5065571;28;20047;-60
2023/01/09 04:18:59;;;;;;;5.55;2.42;;;;;;;;;;5064338;28;20680;-60
2023/01/09 04:21:25;;;;;;;5.88;2.85;;;;;;;;;;5062662;28;20438;-59
2023/01/09 04:23:50;;;;;;;8.20;3.08;;;;;;;;;;5059536;28;20028;-58
2023/01/09 04:26:16;;;;;;;7.20;3.15;;;;;;;;;;5067496;28;20036;-58
2023/01/09 04:28:41;;;;;;;4.10;2.47;;;;;;;;;;5063575;28;20389;-59
2023/01/09 04:31:07;;;;;;;5.15;2.55;;;;;;;;;;5066844;28;20485;-59
2023/01/09 04:33:32;;;;;;;4.60;2.50;;;;;;;;;;5063943;28;20024;-60
2023/01/09 04:35:57;;;;;;;4.43;2.30;;;;;;;;;;5065655;28;20064;-56
2023/01/09 04:38:23;;;;;;;5.63;2.42;;;;;;;;;;5068590;28;20044;-54
2023/01/09 04:40:48;;;;;;;7.10;3.20;;;;;;;;;;5069560;28;20181;-57
2023/01/09 04:43:14;;;;;;;4.00;2.10;;;;;;;;;;5068549;28;20074;-53
2023/01/09 04:45:39;;;;;;;5.25;2.35;;;;;;;;;;5069854;28;20466;-60
2023/01/09 04:48:05;;;;;;;4.85;2.70;;;;;;;;;;5071161;28;20067;-57
2023/01/09 04:50:30;;;;;;;4.63;2.22;;;;;;;;;;5071774;28;20435;-57
2023/01/09 04:52:56;;;;;;;4.63;2.20;;;;;;;;;;5067353;28;20147;-56
2023/01/09 04:55:22;;;;;;;5.75;2.50;;;;;;;;;;5071423;28;20051;-56
2023/01/09 04:57:47;;;;;;;4.22;2.13;;;;;;;;;;5071191;28;20456;-55
2023/01/09 05:00:13;;;;;;;4.90;2.38;;;;;;;;;;5072466;28;20120;-56
2023/01/09 05:02:39;;;;;;;3.88;2.08;;;;;;;;;;5072048;28;20066;-54
2023/01/09 05:05:07;;;;;;;4.03;1.88;;;;;;;;;;5071007;28;20036;-55
2023/01/09 05:07:33;;;;;;;5.53;2.10;;;;;;;;;;5069314;28;20094;-55
2023/01/09 05:09:59;;;;;;;4.93;1.90;;;;;;;;;;5071496;28;20040;-52
2023/01/09 05:12:24;;;;;;;9.20;2.28;;;;;;;;;;5071512;28;20385;-51
2023/01/09 05:14:49;;;;;;;4.07;2.00;;;;;;;;;;5070807;28;20020;-54
2023/01/09 05:17:15;;;;;;;3.53;1.90;;;;;;;;;;5071908;28;20507;-53
2023/01/09 05:19:41;;;;;;;9.75;1.95;;;;;;;;;;5071661;28;20032;-56
2023/01/09 05:22:06;;;;;;;5.50;1.90;;;;;;;;;;5058361;28;20029;-54
2023/01/09 05:24:32;;;;;;;6.70;1.95;;;;;;;;;;5070683;28;20047;-58
2023/01/09 05:26:57;;;;;;;3.40;2.10;;;;;;;;;;5070757;28;20028;-58
2023/01/09 05:29:23;;;;;;;5.03;1.90;;;;;;;;;;5071812;28;20047;-56
2023/01/09 05:31:48;;;;;;;4.05;1.80;;;;;;;;;;5070762;28;20056;-55
2023/01/09 05:34:13;;;;;;;6.20;1.90;;;;;;;;;;5070933;28;20103;-56
2023/01/09 05:36:39;;;;;;;5.72;1.90;;;;;;;;;;5069491;28;20062;-55
2023/01/09 05:39:05;;;;;;;5.40;2.47;;;;;;;;;;5070477;28;20293;-54
2023/01/09 05:41:31;;;;;;;3.78;1.75;;;;;;;;;;5071318;28;20076;-55
2023/01/09 05:43:56;;;;;;;5.57;1.60;;;;;;;;;;5060443;28;20025;-56
2023/01/09 05:46:21;;;;;;;4.07;1.60;;;;;;;;;;5067528;28;20032;-56
2023/01/09 05:48:47;;;;;;;3.10;1.55;;;;;;;;;;5071232;28;20033;-59
2023/01/09 05:51:12;;;;;;;4.15;1.60;;;;;;;;;;5072063;28;20132;-56
2023/01/09 05:53:38;;;;;;;7.97;1.90;;;;;;;;;;5069078;28;20028;-56
2023/01/09 05:56:03;;;;;;;7.00;1.90;;;;;;;;;;5069154;28;20111;-56
2023/01/09 05:58:29;;;;;;;9.77;1.95;;;;;;;;;;5070100;28;20400;-56
2023/01/09 06:00:54;;;;;;;5.60;2.97;;;;;;;;;;5069830;28;20029;-55
2023/01/09 06:03:19;;;;;;;7.97;1.80;;;;;;;;;;5070761;28;20028;-52
2023/01/09 06:05:45;;;;;;;5.30;1.60;;;;;;;;;;5070782;28;20054;-60
2023/01/09 06:08:10;;;;;;;4.80;1.63;;;;;;;;;;5063605;28;20041;-57
2023/01/09 06:10:36;;;;;;;5.30;1.38;;;;;;;;;;5071131;28;20060;-53
2023/01/09 06:13:01;;;;;;;6.72;1.70;;;;;;;;;;5066579;28;20111;-55
2023/01/09 06:15:27;;;;;;;4.55;1.30;;;;;;;;;;5051934;28;20033;-57
2023/01/09 06:17:52;;;;;;;8.02;1.50;;;;;;;;;;5061604;28;20492;-56
2023/01/09 06:20:18;;;;;;;7.00;1.60;;;;;;;;;;5071551;28;20043;-57
2023/01/09 06:22:46;;;;;;;5.72;1.50;;;;;;;;;;5063597;28;20036;-56
2023/01/09 06:25:12;;;;;;;4.82;1.65;;;;;;;;;;5051438;28;20131;-55
2023/01/09 06:27:37;;;;;;;5.90;1.70;;;;;;;;;;5059872;28;20115;-54
2023/01/09 06:30:03;;;;;;;1.67;1.00;;;;;;;;;;5068457;28;20521;-54
2023/01/09 06:32:29;;;;;;;4.32;1.40;;;;;;;;;;5070406;28;20032;-54
2023/01/09 06:34:54;;;;;;;4.00;1.73;;;;;;;;;;5069297;28;20388;-55
2023/01/09 06:37:20;;;;;;;4.30;1.40;;;;;;;;;;5067746;28;20143;-56
2023/01/09 06:39:45;;;;;;;2.25;1.17;;;;;;;;;;5058594;28;20457;-59
2023/01/09 06:42:10;;;;;;;4.55;1.30;;;;;;;;;;5053189;28;20040;-57
2023/01/09 06:44:36;;;;;;;2.30;1.02;;;;;;;;;;5070597;28;20041;-61
2023/01/09 06:47:02;;;;;;;5.25;2.17;;;;;;;;;;5069490;28;20064;-61
2023/01/09 06:49:27;;;;;;;3.20;1.23;;;;;;;;;;5070107;28;20081;-61
2023/01/09 06:51:53;;;;;;;7.25;1.30;;;;;;;;;;5069960;28;20450;-61
2023/01/09 06:54:19;;;;;;;5.57;1.83;;;;;;;;;;5067194;28;20032;-61
2023/01/09 06:56:45;;;;;;;5.00;1.67;;;;;;;;;;5070167;28;20477;-60
2023/01/09 06:59:11;;;;;;;6.53;1.92;;;;;;;;;;5058050;28;20107;-59
2023/01/09 07:01:38;;;;;;;4.65;1.73;;;;;;;;;;5051466;28;20099;-60
2023/01/09 07:04:04;;;;;;;5.88;2.10;;;;;;;;;;5049906;28;20029;-60
2023/01/09 07:06:30;;;;;;;6.55;1.70;;;;;;;;;;5050588;28;20033;-60
2023/01/09 07:08:55;;;;;;;5.68;1.55;;;;;;;;;;5051390;28;20032;-61
2023/01/09 07:11:21;;;;;;;5.53;1.88;;;;;;;;;;5054016;28;20044;-59
2023/01/09 07:13:46;;;;;;;7.22;1.70;;;;;;;;;;5054223;28;20488;-59
2023/01/09 07:16:11;;;;;;;8.52;2.25;;;;;;;;;;5052967;28;20059;-58
2023/01/09 07:18:37;;;;;;;5.63;1.70;;;;;;;;;;5054482;28;20112;-59
2023/01/09 07:21:04;;;;;;;3.25;1.50;;;;;;;;;;5053432;28;20458;-57
2023/01/09 07:23:30;;;;;;;8.00;1.60;;;;;;;;;;5054489;28;20029;-59
2023/01/09 07:25:55;;;;;;;19.02;2.65;;;;;;;;;;5054582;28;20025;-59
2023/01/09 07:28:20;;;;;;;5.63;1.70;;;;;;;;;;5036317;28;20481;-57
2023/01/09 07:30:46;;;;;;;8.18;2.00;;;;;;;;;;5053518;28;20021;-58
2023/01/09 07:33:11;;;;;;;6.53;1.73;;;;;;;;;;5052567;28;20551;-59
2023/01/09 07:35:37;;;;;;;3.50;1.67;;;;;;;;;;5054034;28;20025;-59
2023/01/09 07:38:02;;;;;;;5.68;1.58;;;;;;;;;;5056500;28;20139;-57
2023/01/09 07:40:28;;;;;;;3.60;1.58;;;;;;;;;;5054812;28;20044;-57
2023/01/09 07:42:53;;;;;;;6.32;2.45;;;;;;;;;;5035802;28;20090;-61
2023/01/09 07:45:19;;;;;;;4.10;1.42;;;;;;;;;;5054726;28;20374;-59
2023/01/09 07:47:44;;;;;;;4.57;1.45;;;;;;;;;;5054451;28;20099;-60
2023/01/09 07:50:10;;;;;;;4.70;1.75;;;;;;;;;;5053772;28;20120;-62
2023/01/09 07:52:35;;;;;;;6.82;1.63;;;;;;;;;;5044416;28;20112;-59
2023/01/09 07:55:01;;;;;;;4.28;1.27;;;;;;;;;;5051974;28;20037;-61
2023/01/09 07:57:26;;;;;;;7.45;1.80;;;;;;;;;;5031063;28;20036;-60
2023/01/09 07:59:52;;;;;;;3.90;1.65;;;;;;;;;;5053414;28;20041;-62
2023/01/09 08:02:17;;;;;;;4.40;1.42;;;;;;;;;;5061157;28;20037;-61
2023/01/09 08:04:42;;;;;;;5.13;1.75;;;;;;;;;;5053926;28;20044;-61
2023/01/09 08:07:08;;;;;;;4.30;1.42;;;;;;;;;;5067457;28;20039;-61
2023/01/09 08:09:33;;;;;;;6.63;1.55;;;;;;;;;;5073632;28;20044;-62
2023/01/09 08:11:59;;;;;;;5.15;1.70;;;;;;;;;;5073033;28;20377;-61
2023/01/09 08:14:24;;;;;;;7.50;1.55;;;;;;;;;;5072369;28;20040;-63
2023/01/09 08:16:49;;;;;;;4.05;1.25;;;;;;;;;;5072043;28;20113;-61
2023/01/09 08:19:15;;;;;;;7.63;1.70;;;;;;;;;;5072199;28;20477;-61
2023/01/09 08:21:40;;;;;;;3.92;1.60;;;;;;;;;;5054326;28;20041;-61
2023/01/09 08:24:06;;;;;;;5.43;1.75;;;;;;;;;;5061605;28;20128;-61
2023/01/09 08:26:32;;;;;;;6.53;1.73;;;;;;;;;;5067076;28;20028;-61
2023/01/09 08:28:57;;;;;;;6.15;1.52;;;;;;;;;;5072600;28;20062;-61
2023/01/09 08:31:23;;;;;;;7.45;1.73;;;;;;;;;;5072858;28;20032;-61
2023/01/09 08:33:48;;;;;;;3.22;1.48;;;;;;;;;;5072164;28;20485;-61
2023/01/09 08:36:14;;;;;;;3.97;1.40;;;;;;;;;;5070104;28;20028;-61
2023/01/09 08:38:39;;;;;;;5.65;1.63;;;;;;;;;;5072369;28;20552;-61
2023/01/09 08:47:04;;;;;;;3.47;1.80;;;;;;;;;;5071154;28;20024;-60
2023/01/09 08:49:18;;;;;;;6.93;1.90;;;;;;;;;;5052677;28;20536;-56
2023/01/09 08:51:44;;;;;;;4.25;1.52;;;;;;;;;;5066628;28;20032;-56
2023/01/09 08:54:09;;;;;;;6.22;1.88;;;;;;;;;;5072084;28;20400;-55
2023/01/09 08:56:34;;;;;;;6.35;1.83;;;;;;;;;;5071319;28;20086;-54
2023/01/09 08:59:00;;;;;;;3.50;1.65;;;;;;;;;;5069049;28;20048;-57
2023/01/09 09:01:25;;;;;;;6.10;1.65;;;;;;;;;;5072039;28;20396;-55
2023/01/09 09:03:50;;;;;;;7.38;1.73;;;;;;;;;;5070658;28;20032;-54
2023/01/09 09:06:16;;;;;;;4.68;1.98;;;;;;;;;;5067163;28;20036;-54
2023/01/09 09:08:41;;;;;;;5.80;1.85;;;;;;;;;;5071036;28;20393;-53
2023/01/09 09:11:07;;;;;;;3.83;1.60;;;;;;;;;;5069853;28;20036;-58
2023/01/09 09:13:32;;;;;;;4.95;1.63;;;;;;;;;;5072468;28;20076;-57
2023/01/09 09:15:57;;;;;;;7.40;1.77;;;;;;;;;;5071865;28;20024;-59
2023/01/09 09:18:23;;;;;;;7.32;1.95;;;;;;;;;;5072466;28;20461;-55
2023/01/09 09:20:48;;;;;;;7.18;2.50;;;;;;;;;;5070394;28;20036;-56
2023/01/09 09:23:13;;;;;;;8.32;2.20;;;;;;;;;;5071608;28;20037;-56
2023/01/09 09:25:39;;;;;;;9.32;2.25;;;;;;;;;;5070512;28;20028;-56
2023/01/09 09:28:05;;;;;;;4.43;1.88;;;;;;;;;;5070700;28;20443;-56
2023/01/09 09:30:30;;;;;;;7.28;1.70;;;;;;;;;;5071817;28;20060;-57
2023/01/09 09:32:56;;;;;;;7.93;2.30;;;;;;;;;;5070214;28;20033;-59
2023/01/09 09:35:21;;;;;;;6.22;1.80;;;;;;;;;;5069930;28;20063;-56
2023/01/09 09:37:58;;;;;;;5.72;1.90;;;;;;;;;;5066073;28;20029;-55
2023/01/09 09:40:46;;;;;;;5.50;1.50;;;;;;;;;;5064428;28;20107;-57
2023/01/09 09:46:48;;;;;;;5.18;2.08;;;;;;;;;;5071032;28;20044;-56
2023/01/09 09:49:20;;;;;;;10.73;2.78;;;;;;;;;;5070440;28;20032;-56
2023/01/09 09:51:52;;;;;;;2.67;1.40;;;;;;;;;;5070677;28;20036;-54
2023/01/09 09:54:23;;;;;;;8.82;1.80;;;;;;;;;;5071248;28;20507;-58
2023/01/09 09:56:56;;;;;;;8.35;2.60;;;;;;;;;;5071219;28;20079;-58
2023/01/09 09:59:28;;;;;;;5.75;1.80;;;;;;;;;;5070230;28;20044;-53
2023/01/09 10:02:01;;;;;;;8.00;2.60;;;;;;;;;;5069641;28;20389;-55
2023/01/09 10:04:29;;;;;;;7.43;2.10;;;;;;;;;;5070576;28;20035;-57
2023/01/09 10:07:08;;;;;;;9.05;1.85;;;;;;;;;;5069224;28;20419;-57
2023/01/09 10:10:03;;;;;;;4.20;1.40;;;;;;;;;;5055032;28;20109;-53
2023/01/09 10:12:44;;;;;;;8.90;1.95;;;;;;;;;;5049227;28;20562;-56
2023/01/09 10:15:29;;;;;;;8.48;1.98;;;;;;;;;;5071180;28;20158;-56
2023/01/09 10:18:09;;;;;;;9.00;1.42;;;;;;;;;;5070618;28;20090;-57
2023/01/09 10:20:48;;;;;;;6.10;1.50;;;;;;;;;;5071890;28;20469;-58
2023/01/09 10:23:22;;;;;;;7.13;1.42;;;;;;;;;;5068979;28;20028;-56
2023/01/09 10:25:56;;;;;;;3.22;1.75;;;;;;;;;;5070754;28;20032;-57
2023/01/09 10:28:31;;;;;;;5.00;1.52;;;;;;;;;;5069867;28;20032;-57
2023/01/09 10:31:17;;;;;;;6.32;1.73;;;;;;;;;;5070666;28;20032;-58
2023/01/09 10:33:57;;;;;;;2.72;1.10;;;;;;;;;;5069427;28;20545;-56
2023/01/09 10:36:54;;;;;;;4.88;1.60;;;;;;;;;;5070063;28;20036;-58
2023/01/09 10:39:30;;;;;;;4.03;1.40;;;;;;;;;;5066390;28;20044;-56
2023/01/09 10:41:59;;;;;;;2.10;1.00;;;;;;;;;;5065429;28;20434;-56
2023/01/09 10:44:37;;;;;;;8.68;1.70;;;;;;;;;;5070644;28;20047;-57
2023/01/09 10:47:26;;;;;;;7.68;1.52;;;;;;;;;;5075127;28;20040;-61
2023/01/09 10:49:53;;;;;;;3.78;1.13;;;;;;;;;;5059157;28;20024;-57
2023/01/09 10:52:27;;;;;;;7.47;1.60;;;;;;;;;;5074586;28;20111;-57
2023/01/09 10:55:02;;;;;;;5.88;1.48;;;;;;;;;;5071703;28;20404;-58
2023/01/09 10:57:42;;;;;;;7.68;2.00;;;;;;;;;;5073574;28;20037;-58
2023/01/09 11:00:23;;;;;;;5.15;1.23;;;;;;;;;;5059031;28;20101;-59
2023/01/09 11:02:49;;;;;;;6.80;1.80;;;;;;;;;;5073312;28;20465;-59
2023/01/09 11:05:19;;;;;;;3.45;1.15;;;;;;;;;;5073943;28;20032;-60
2023/01/09 11:07:50;;;;;;;2.97;1.42;;;;;;;;;;5073389;28;20036;-60
2023/01/09 11:10:15;;;;;;;3.35;1.50;;;;;;;;;;5072861;28;20029;-60
2023/01/09 11:12:41;;;;;;;2.63;1.20;;;;;;;;;;5072395;28;20029;-61
2023/01/09 11:15:19;;;;;;;2.55;1.23;;;;;;;;;;5069449;28;20070;-60
2023/01/09 11:17:50;;;;;;;3.88;1.30;;;;;;;;;;5071686;28;20172;-61
2023/01/09 11:20:22;;;;;;;3.95;1.30;;;;;;;;;;5054851;28;20067;-59
2023/01/09 11:22:49;;;;;;;3.38;1.38;;;;;;;;;;5056667;28;20040;-60
2023/01/09 11:25:16;;;;;;;4.32;1.80;;;;;;;;;;5072510;28;20036;-53
2023/01/09 11:27:42;;;;;;;6.90;1.67;;;;;;;;;;5072213;28;20021;-58
2023/01/09 11:30:19;;;;;;;4.03;1.35;;;;;;;;;;5072748;28;20042;-60
2023/01/09 11:32:46;;;;;;;2.55;1.40;;;;;;;;;;5074039;28;20040;-53
2023/01/09 11:35:21;;;;;;;6.93;2.17;;;;;;;;;;5058031;28;20029;-55
2023/01/09 11:37:49;;;;;;;7.65;2.50;;;;;;;;;;5055573;28;20492;-55
2023/01/09 11:40:20;;;;;;;2.45;1.52;;;;;;;;;;5058900;28;20540;-56
2023/01/09 11:43:21;;;;;;;;;;;;;;;;;;5069848;28;20082;-56
2023/01/09 11:45:55;;;;;;;9.27;1.90;;;;;;;;;;5012439;28;20296;-54
2023/01/09 11:49:00;;;;;;;3.20;1.27;;;;;;;;;;5062804;28;20526;-55
2023/01/09 11:51:34;;;;;;;3.80;1.48;;;;;;;;;;5068389;28;20123;-52
2023/01/09 11:54:18;;;;;;;4.82;1.67;;;;;;;;;;5071989;28;20086;-55
2023/01/09 11:56:45;;;;;;;9.93;2.03;;;;;;;;;;5074465;28;20028;-55
2023/01/09 11:59:13;;;;;;;4.72;1.80;;;;;;;;;;5072155;28;20089;-53
2023/01/09 12:01:38;;;;;;;3.33;1.70;;;;;;;;;;5074388;28;20119;-52
2023/01/09 12:04:19;;;;;;;6.00;1.83;;;;;;;;;;5072844;28;20097;-57
2023/01/09 12:06:51;;;;;;;5.25;1.85;;;;;;;;;;5072588;28;20029;-56
2023/01/09 12:09:27;;;;;;;2.78;1.70;;;;;;;;;;5065088;28;20040;-56
2023/01/09 12:11:58;;;;;;;3.78;1.60;;;;;;;;;;5064632;28;20033;-54
2023/01/09 12:14:30;;;;;;;;;;;;;;;;;;5070697;28;20040;-55
2023/01/09 12:16:55;;;;;;;3.15;1.52;;;;;;;;;;5073942;28;20336;-57
2023/01/09 12:19:46;;;;;;;6.43;1.95;;;;;;;;;;5072791;28;20032;-55
2023/01/09 12:22:23;;;;;;;4.47;1.73;;;;;;;;;;5072441;28;20040;-53
2023/01/09 12:25:13;;;;;;;4.00;1.40;;;;;;;;;;5072125;28;20032;-56
2023/01/09 12:27:56;;;;;;;5.90;1.60;;;;;;;;;;5069808;28;20051;-57
2023/01/09 12:30:52;;;;;;;3.63;1.38;;;;;;;;;;5073160;28;20246;-56
2023/01/09 12:33:50;;;;;;;4.35;1.70;;;;;;;;;;5071971;28;20032;-56
2023/01/09 12:36:31;;;;;;;3.13;1.75;;;;;;;;;;5047069;28;20044;-56
2023/01/09 12:39:10;;;;;;;5.07;1.60;;;;;;;;;;5066010;28;20099;-57
2023/01/09 12:42:07;;;;;;;2.38;1.42;;;;;;;;;;5072329;28;20066;-55
2023/01/09 12:44:54;;;;;;;6.63;2.20;;;;;;;;;;5060187;28;20041;-58
2023/01/09 12:47:25;;;;;;;3.88;1.95;;;;;;;;;;5053010;28;20462;-55
2023/01/09 12:50:09;;;;;;;5.50;2.22;;;;;;;;;;5070752;28;20040;-58
2023/01/09 12:52:39;;;;;;;6.00;2.50;;;;;;;;;;5067311;28;20560;-55
2023/01/09 12:55:13;;;;;;;8.82;2.75;;;;;;;;;;5070258;28;20109;-56
2023/01/09 12:57:42;;;;;;;7.72;2.00;;;;;;;;;;5057805;28;20350;-57
2023/01/09 13:00:23;;;;;;;4.72;1.80;;;;;;;;;;5072041;28;20044;-59
2023/01/09 13:03:22;;;;;;;5.90;1.98;;;;;;;;;;5054779;28;20115;-56
2023/01/09 13:05:50;;;;;;;8.60;2.17;;;;;;;;;;5072850;28;20029;-57
2023/01/09 13:08:29;;;;;;;4.43;2.13;;;;;;;;;;5069847;28;20028;-57
2023/01/09 13:11:10;;;;;;;7.25;2.67;;;;;;;;;;5064395;28;20487;-55
2023/01/09 13:14:00;;;;;;;3.92;1.95;;;;;;;;;;5069791;28;20071;-57
2023/01/09 13:16:35;;;;;;;4.15;2.22;;;;;;;;;;5071581;28;20094;-57
2023/01/09 13:19:24;;;;;;;6.65;2.45;;;;;;;;;;5072069;28;20032;-56
2023/01/09 13:21:50;;;;;;;5.70;1.98;;;;;;;;;;5071958;28;20032;-56
2023/01/09 13:24:22;;;;;;;4.85;2.00;;;;;;;;;;5069770;28;20052;-56
2023/01/09 13:26:56;;;;;;;3.70;1.70;;;;;;;;;;5071104;28;20028;-55
2023/01/09 13:29:33;;;;;;;3.58;1.80;;;;;;;;;;5056052;28;20123;-57
2023/01/09 13:32:17;;;;;;;3.15;1.63;;;;;;;;;;5070305;28;20040;-55
2023/01/09 13:34:45;;;;;;;3.08;1.92;;;;;;;;;;5056491;28;20083;-57
2023/01/09 13:37:35;;;;;;;3.50;1.90;;;;;;;;;;5059027;28;20036;-60
2023/01/09 13:40:01;;;;;;;5.38;2.22;;;;;;;;;;5057694;28;20374;-57
2023/01/09 13:42:45;;;;;;;3.60;1.67;;;;;;;;;;5052387;28;20104;-56
2023/01/09 13:45:16;;;;;;;5.65;2.38;;;;;;;;;;5061747;28;20389;-57
2023/01/09 13:47:42;;;;;;;5.78;2.53;;;;;;;;;;5055635;28;20104;-55
2023/01/09 13:50:08;;;;;;;3.42;1.95;;;;;;;;;;5071332;28;20109;-55
2023/01/09 13:52:43;;;;;;;6.95;2.65;;;;;;;;;;5070176;28;20036;-56
2023/01/09 13:55:14;;;;;;;7.25;2.90;;;;;;;;;;5057329;28;20107;-57
2023/01/09 13:57:44;;;;;;;7.03;2.97;;;;;;;;;;5065169;28;20036;-57
2023/01/09 14:00:13;;;;;;;7.53;3.40;;;;;;;;;;5067630;28;20127;-54
2023/01/09 14:02:39;;;;;;;7.85;2.95;;;;;;;;;;5070332;28;20032;-54
2023/01/09 14:05:13;;;;;;;5.38;2.50;;;;;;;;;;5071641;28;20073;-56
2023/01/09 14:07:48;;;;;;;6.03;3.10;;;;;;;;;;5070981;28;20028;-56
2023/01/09 14:10:27;;;;;;;9.15;2.72;;;;;;;;;;5071192;28;20089;-60
2023/01/09 14:12:55;;;;;;;6.28;2.30;;;;;;;;;;5051792;28;20116;-58
2023/01/09 14:15:35;;;;;;;4.65;2.50;;;;;;;;;;5064452;28;20033;-57
2023/01/09 14:18:13;;;;;;;6.13;3.10;;;;;;;;;;5069210;28;20119;-58
2023/01/09 14:20:42;;;;;;;6.15;2.50;;;;;;;;;;5068560;28;20107;-56
2023/01/09 14:23:28;;;;;;;6.15;2.85;;;;;;;;;;5071071;28;20040;-56
2023/01/09 14:25:54;;;;;;;7.75;2.78;;;;;;;;;;5069155;28;20099;-57
2023/01/09 14:28:25;;;;;;;7.15;3.30;;;;;;;;;;5070717;28;20112;-58
2023/01/09 14:30:53;;;;;;;7.97;3.43;;;;;;;;;;5064915;28;20033;-56
2023/01/09 14:33:18;;;;;;;5.00;3.00;;;;;;;;;;5053396;28;20035;-58
2023/01/09 14:35:52;;;;;;;6.55;3.70;;;;;;;;;;5071205;28;20364;-52
2023/01/09 14:38:23;;;;;;;11.00;3.90;;;;;;;;;;5069212;28;20032;-59
2023/01/09 14:41:01;;;;;;;7.75;3.15;;;;;;;;;;5060027;28;20039;-59
2023/01/09 14:43:39;;;;;;;11.30;3.80;;;;;;;;;;5062445;28;20480;-57
2023/01/09 14:46:11;;;;;;;9.93;3.92;;;;;;;;;;5070354;28;20048;-58
2023/01/09 14:48:41;;;;;;;6.80;3.10;;;;;;;;;;5068628;28;20032;-60
2023/01/09 14:51:14;;;;;;;7.63;2.77;;;;;;;;;;5071229;28;20064;-61
2023/01/09 14:53:40;;;;;;;8.20;3.80;;;;;;;;;;5068769;28;20372;-61
2023/01/09 14:56:07;;;;;;;6.93;3.72;;;;;;;;;;5070134;28;20108;-62
2023/01/09 14:58:36;;;;;;;8.77;4.47;;;;;;;;;;5060937;28;20393;-62
2023/01/09 15:01:09;;;;;;;7.32;3.10;;;;;;;;;;5051842;28;20100;-62
2023/01/09 15:03:40;;;;;;;6.45;3.38;;;;;;;;;;5063354;28;20051;-60
2023/01/09 15:06:13;;;;;;;8.93;3.80;;;;;;;;;;5070808;28;20534;-58
2023/01/09 15:08:38;;;;;;;16.65;4.72;;;;;;;;;;5056277;28;20082;-57
2023/01/09 15:11:04;;;;;;;8.30;3.55;;;;;;;;;;5070289;28;20036;-54
2023/01/09 15:13:31;;;;;;;8.27;4.25;;;;;;;;;;5069309;28;20029;-56
2023/01/09 15:15:59;;;;;;;6.68;3.40;;;;;;;;;;5070354;28;20032;-56